createdAt,value
2023-05-17T00:00:14.595Z,11.81
2023-05-17T00:02:41.175Z,11.78
2023-05-17T00:05:08.076Z,11.76
2023-05-17T00:07:34.606Z,11.76
2023-05-17T00:10:01.140Z,11.76
2023-05-17T00:12:27.618Z,11.77
2023-05-17T00:14:54.054Z,11.77
2023-05-17T00:17:20.554Z,11.78
2023-05-17T00:19:47.009Z,11.78
2023-05-17T00:22:13.546Z,11.80
2023-05-17T00:24:40.001Z,11.79
2023-05-17T00:27:06.449Z,11.81
2023-05-17T00:29:33.102Z,11.81
2023-05-17T00:31:59.575Z,11.81
2023-05-17T00:34:26.287Z,11.82
2023-05-17T00:36:52.847Z,11.81
2023-05-17T00:39:19.332Z,11.81
2023-05-17T00:41:45.914Z,11.83
2023-05-17T00:44:12.393Z,11.84
2023-05-17T00:46:38.853Z,11.85
2023-05-17T00:49:05.612Z,11.86
2023-05-17T00:51:33.358Z,11.88
2023-05-17T00:53:59.866Z,11.88
2023-05-17T00:56:26.477Z,11.91
2023-05-17T00:58:54.380Z,11.91
2023-05-17T01:01:21.217Z,11.93
2023-05-17T01:03:48.339Z,11.94
2023-05-17T01:06:14.884Z,11.94
2023-05-17T01:08:42.528Z,11.92
2023-05-17T01:11:42.857Z,11.95
2023-05-17T01:14:18.815Z,11.97
2023-05-17T01:17:10.039Z,12.00
2023-05-17T01:20:10.875Z,11.98
2023-05-17T01:23:03.436Z,12.00
2023-05-17T01:25:30.045Z,11.99
2023-05-17T01:28:00.519Z,11.97
2023-05-17T01:30:29.226Z,11.96
2023-05-17T01:32:59.031Z,11.96
2023-05-17T01:35:25.944Z,11.91
2023-05-17T01:37:54.064Z,11.87
2023-05-17T01:40:20.981Z,11.87
2023-05-17T01:42:54.431Z,11.92
2023-05-17T01:45:30.531Z,11.95
2023-05-17T01:48:34.765Z,11.98
2023-05-17T01:51:03.007Z,11.98
2023-05-17T01:53:46.387Z,11.99
2023-05-17T01:56:21.242Z,11.99
2023-05-17T01:58:48.888Z,11.95
2023-05-17T02:01:18.423Z,11.96
2023-05-17T02:03:49.661Z,11.97
2023-05-17T02:06:17.465Z,11.93
2023-05-17T02:08:43.955Z,11.90
2023-05-17T02:11:10.530Z,11.91
2023-05-17T02:13:37.021Z,11.90
2023-05-17T02:16:04.300Z,11.87
2023-05-17T02:18:35.488Z,11.86
2023-05-17T02:21:02.303Z,11.86
2023-05-17T02:23:28.824Z,11.83
2023-05-17T02:25:55.216Z,11.74
2023-05-17T02:28:21.727Z,11.69
2023-05-17T02:30:48.172Z,11.60
2023-05-17T02:33:14.755Z,11.63
2023-05-17T02:35:41.288Z,11.61
2023-05-17T02:38:07.812Z,11.61
2023-05-17T02:40:34.296Z,11.60
2023-05-17T02:43:02.613Z,11.61
2023-05-17T02:45:29.409Z,11.56
2023-05-17T02:47:56.088Z,11.49
2023-05-17T02:50:22.853Z,11.41
2023-05-17T02:52:49.300Z,11.43
2023-05-17T02:55:15.886Z,11.46
2023-05-17T02:57:42.581Z,11.45
2023-05-17T03:00:10.012Z,11.45
2023-05-17T03:02:36.872Z,11.36
2023-05-17T03:05:05.065Z,11.36
2023-05-17T03:07:32.110Z,11.38
2023-05-17T03:09:58.593Z,11.36
2023-05-17T03:12:29.472Z,11.33
2023-05-17T03:14:56.272Z,11.32
2023-05-17T03:17:23.706Z,11.33
2023-05-17T03:19:51.241Z,11.29
2023-05-17T03:22:17.909Z,11.27
2023-05-17T03:24:44.376Z,11.27
2023-05-17T03:27:11.079Z,11.25
2023-05-17T03:29:37.948Z,11.23
2023-05-17T03:32:05.440Z,11.22
2023-05-17T03:34:32.265Z,11.20
2023-05-17T03:36:58.780Z,11.18
2023-05-17T03:39:25.429Z,11.17
2023-05-17T03:41:52.007Z,11.17
2023-05-17T03:44:19.273Z,11.19
2023-05-17T03:46:46.157Z,11.18
2023-05-17T03:49:12.759Z,11.17
2023-05-17T03:51:40.096Z,11.14
2023-05-17T03:54:06.616Z,11.14
2023-05-17T03:56:33.162Z,11.11
2023-05-17T03:58:59.724Z,11.09
2023-05-17T04:01:27.277Z,11.10
2023-05-17T04:03:53.714Z,11.09
2023-05-17T04:06:21.700Z,11.09
2023-05-17T04:08:48.932Z,11.06
2023-05-17T04:11:15.464Z,11.06
2023-05-17T04:13:43.045Z,11.03
2023-05-17T04:16:10.084Z,11.03
2023-05-17T04:18:39.246Z,11.03
2023-05-17T04:21:06.136Z,11.04
2023-05-17T04:23:34.835Z,11.04
2023-05-17T04:26:03.220Z,11.02
2023-05-17T04:28:32.206Z,11.02
2023-05-17T04:30:58.716Z,11.00
2023-05-17T04:33:26.795Z,11.02
2023-05-17T04:35:56.698Z,11.08
2023-05-17T04:38:24.915Z,11.13
2023-05-17T04:40:51.382Z,11.16
2023-05-17T04:43:18.446Z,11.17
2023-05-17T04:45:46.130Z,11.14
2023-05-17T04:48:12.864Z,11.12
2023-05-17T04:50:39.424Z,11.13
2023-05-17T04:53:08.699Z,11.20
2023-05-17T04:55:36.532Z,11.26
2023-05-17T04:58:03.284Z,11.36
2023-05-17T05:00:31.119Z,11.45
2023-05-17T05:03:04.819Z,11.51
2023-05-17T05:05:31.587Z,11.53
2023-05-17T05:07:58.360Z,11.56
2023-05-17T05:10:24.960Z,11.53
2023-05-17T05:12:51.919Z,11.49
2023-05-17T05:15:19.066Z,11.44
2023-05-17T05:17:52.248Z,11.38
2023-05-17T05:20:19.869Z,11.39
2023-05-17T05:22:46.334Z,11.42
2023-05-17T05:25:13.811Z,11.38
2023-05-17T05:27:40.415Z,11.34
2023-05-17T05:30:07.612Z,11.34
2023-05-17T05:32:34.122Z,11.39
2023-05-17T05:35:00.970Z,11.39
2023-05-17T05:37:27.570Z,11.41
2023-05-17T05:39:54.279Z,11.49
2023-05-17T05:42:20.831Z,11.52
2023-05-17T05:44:47.298Z,11.54
2023-05-17T05:47:14.586Z,11.58
2023-05-17T05:49:41.078Z,11.61
2023-05-17T05:52:08.204Z,11.64
2023-05-17T05:54:36.404Z,11.69
2023-05-17T05:57:02.882Z,11.78
2023-05-17T05:59:29.353Z,11.81
2023-05-17T06:01:57.905Z,11.82
2023-05-17T06:04:33.074Z,11.82
2023-05-17T06:07:10.831Z,11.86
2023-05-17T06:09:37.323Z,11.91
2023-05-17T06:12:03.880Z,11.90
2023-05-17T06:14:30.330Z,11.93
2023-05-17T06:16:56.844Z,11.85
2023-05-17T06:19:23.647Z,11.79
2023-05-17T06:21:50.170Z,11.77
2023-05-17T06:24:16.911Z,11.78
2023-05-17T06:26:47.177Z,11.79
2023-05-17T06:29:13.683Z,11.76
2023-05-17T06:31:40.364Z,11.86
2023-05-17T06:34:06.963Z,11.92
2023-05-17T06:36:35.921Z,12.00
2023-05-17T06:39:04.004Z,12.02
2023-05-17T06:41:30.538Z,12.04
2023-05-17T06:43:57.042Z,12.13
2023-05-17T06:46:23.498Z,12.17
2023-05-17T06:48:51.336Z,12.12
2023-05-17T06:51:18.205Z,12.06
2023-05-17T06:53:44.795Z,12.10
2023-05-17T06:56:11.379Z,11.99
2023-05-17T06:58:37.827Z,11.96
2023-05-17T07:01:04.432Z,11.94
2023-05-17T07:03:31.004Z,12.02
2023-05-17T07:05:57.655Z,12.10
2023-05-17T07:08:24.076Z,12.11
2023-05-17T07:10:54.029Z,12.04
2023-05-17T07:13:20.771Z,12.05
2023-05-17T07:15:47.432Z,12.12
2023-05-17T07:18:14.132Z,12.25
2023-05-17T07:20:40.733Z,12.32
2023-05-17T07:23:07.616Z,12.42
2023-05-17T07:25:34.236Z,12.46
2023-05-17T07:28:00.696Z,12.45
2023-05-17T07:30:27.148Z,12.48
2023-05-17T07:32:53.731Z,12.60
2023-05-17T07:35:21.830Z,12.56
2023-05-17T07:37:48.752Z,12.51
2023-05-17T07:40:15.435Z,12.45
2023-05-17T07:42:41.877Z,12.33
2023-05-17T07:45:08.977Z,12.37
2023-05-17T07:47:35.990Z,12.34
2023-05-17T07:50:03.800Z,12.23
2023-05-17T07:52:30.311Z,12.21
2023-05-17T07:54:56.814Z,12.18
2023-05-17T07:57:23.383Z,12.14
2023-05-17T07:59:49.915Z,12.15
2023-05-17T08:02:16.362Z,12.15
2023-05-17T08:04:42.894Z,12.26
2023-05-17T08:07:09.379Z,12.37
2023-05-17T08:09:37.013Z,12.42
2023-05-17T08:12:03.678Z,12.49
2023-05-17T08:14:32.905Z,12.54
2023-05-17T08:16:59.318Z,12.63
2023-05-17T08:19:26.647Z,12.68
2023-05-17T08:21:53.235Z,12.66
2023-05-17T08:24:19.706Z,12.69
2023-05-17T08:26:46.216Z,12.76
2023-05-17T08:29:12.708Z,12.82
2023-05-17T08:31:39.253Z,12.79
2023-05-17T08:34:05.904Z,12.78
2023-05-17T08:36:32.497Z,12.79
2023-05-17T08:38:58.990Z,12.82
2023-05-17T08:41:25.488Z,12.87
2023-05-17T08:43:52.240Z,13.02
2023-05-17T08:46:22.629Z,13.13
2023-05-17T08:48:53.542Z,13.22
2023-05-17T08:51:21.644Z,13.27
2023-05-17T08:53:48.257Z,13.26
2023-05-17T08:56:17.483Z,13.25
2023-05-17T08:58:56.431Z,13.20
2023-05-17T09:01:26.526Z,13.19
2023-05-17T09:03:54.294Z,13.17
2023-05-17T09:06:22.621Z,13.16
2023-05-17T09:08:54.418Z,13.17
2023-05-17T09:11:33.060Z,13.25
2023-05-17T09:14:04.805Z,13.19
2023-05-17T09:16:36.590Z,13.08
2023-05-17T09:19:05.718Z,13.03
2023-05-17T09:21:33.985Z,13.10
2023-05-17T09:24:07.172Z,13.22
2023-05-17T09:26:42.636Z,13.29
2023-05-17T09:29:11.434Z,13.28
2023-05-17T09:31:38.743Z,13.33
2023-05-17T09:34:07.143Z,13.40
2023-05-17T09:36:36.161Z,13.30
2023-05-17T09:39:11.852Z,13.22
2023-05-17T09:41:46.737Z,13.16
2023-05-17T09:44:14.983Z,13.25
2023-05-17T09:46:44.321Z,13.32
2023-05-17T09:49:11.088Z,13.40
2023-05-17T09:51:41.611Z,13.41
2023-05-17T09:54:08.895Z,13.47
2023-05-17T09:56:36.431Z,13.50
2023-05-17T09:59:04.721Z,13.55
2023-05-17T10:01:31.714Z,13.55
2023-05-17T10:04:04.801Z,13.59
2023-05-17T10:06:44.102Z,13.56
2023-05-17T10:09:20.235Z,13.48
2023-05-17T10:11:47.383Z,13.46
2023-05-17T10:14:32.472Z,13.41
2023-05-17T10:17:01.124Z,13.33
2023-05-17T10:19:28.122Z,13.35
2023-05-17T10:21:56.621Z,13.45
2023-05-17T10:24:23.796Z,13.44
2023-05-17T10:26:51.218Z,13.39
2023-05-17T10:29:20.706Z,13.32
2023-05-17T10:31:50.145Z,13.28
2023-05-17T10:34:17.810Z,13.31
2023-05-17T10:36:45.007Z,13.44
2023-05-17T10:39:12.137Z,13.55
2023-05-17T10:41:43.285Z,13.62
2023-05-17T10:44:13.684Z,13.48
2023-05-17T10:46:40.633Z,13.45
2023-05-17T10:49:07.275Z,13.56
2023-05-17T10:51:37.725Z,13.52
2023-05-17T10:54:12.252Z,13.44
2023-05-17T10:56:41.474Z,13.43
2023-05-17T10:59:26.747Z,13.42
2023-05-17T11:01:57.740Z,13.25
2023-05-17T11:04:28.450Z,13.29
2023-05-17T11:07:13.467Z,13.44
2023-05-17T11:09:40.810Z,13.55
2023-05-17T11:12:09.323Z,13.34
2023-05-17T11:14:56.206Z,13.21
2023-05-17T11:17:27.539Z,13.17
2023-05-17T11:20:02.729Z,13.29
2023-05-17T11:22:42.408Z,13.36
2023-05-17T11:25:11.603Z,13.32
2023-05-17T11:27:50.117Z,13.32
2023-05-17T11:30:31.160Z,13.24
2023-05-17T11:33:11.076Z,13.33
2023-05-17T11:35:47.398Z,13.38
2023-05-17T11:38:21.828Z,13.41
2023-05-17T11:40:50.305Z,13.42
2023-05-17T11:43:22.948Z,13.53
2023-05-17T11:45:53.225Z,13.55
2023-05-17T11:48:24.676Z,13.72
2023-05-17T11:50:52.734Z,13.77
2023-05-17T11:53:20.017Z,13.81
2023-05-17T11:55:51.659Z,13.81
2023-05-17T11:58:20.476Z,13.75
2023-05-17T12:00:53.542Z,13.69
2023-05-17T12:03:31.020Z,13.63
2023-05-17T12:06:04.890Z,13.55
2023-05-17T12:08:34.156Z,13.44
2023-05-17T12:11:01.850Z,13.41
2023-05-17T12:13:30.305Z,13.35
2023-05-17T12:16:02.558Z,13.26
2023-05-17T12:18:45.047Z,13.29
2023-05-17T12:21:14.429Z,13.40
2023-05-17T12:23:46.909Z,13.36
2023-05-17T12:26:16.602Z,13.48
2023-05-17T12:28:57.558Z,13.62
2023-05-17T12:31:30.071Z,13.57
2023-05-17T12:33:59.161Z,13.58
2023-05-17T12:36:29.269Z,13.65
2023-05-17T12:38:56.789Z,13.64
2023-05-17T12:41:26.276Z,13.69
2023-05-17T12:43:57.122Z,13.72
2023-05-17T12:46:30.788Z,13.71
2023-05-17T12:49:01.874Z,13.80
2023-05-17T12:51:28.434Z,13.87
2023-05-17T12:53:56.871Z,13.85
2023-05-17T12:56:27.025Z,13.74
2023-05-17T12:59:20.938Z,13.79
2023-05-17T13:01:51.972Z,13.92
2023-05-17T13:04:22.877Z,13.90
2023-05-17T13:06:59.601Z,13.81
2023-05-17T13:09:28.869Z,13.69
2023-05-17T13:12:00.161Z,13.63
2023-05-17T13:14:47.419Z,13.66
2023-05-17T13:17:27.161Z,13.75
2023-05-17T13:19:54.946Z,13.88
2023-05-17T13:22:21.483Z,13.98
2023-05-17T13:24:48.072Z,14.04
2023-05-17T13:27:14.614Z,14.18
2023-05-17T13:29:42.698Z,14.28
2023-05-17T13:32:11.704Z,14.30
2023-05-17T13:34:38.802Z,14.30
2023-05-17T13:37:08.010Z,14.27
2023-05-17T13:39:37.079Z,14.28
2023-05-17T13:42:03.716Z,14.31
2023-05-17T13:44:30.565Z,14.30
2023-05-17T13:46:57.134Z,14.21
2023-05-17T13:49:23.589Z,14.22
2023-05-17T13:51:50.062Z,14.11
2023-05-17T13:54:16.618Z,14.12
2023-05-17T13:56:43.174Z,14.12
2023-05-17T13:59:09.666Z,14.17
2023-05-17T14:01:36.109Z,14.05
2023-05-17T14:04:02.635Z,13.97
2023-05-17T14:06:29.350Z,14.01
2023-05-17T14:08:57.538Z,13.99
2023-05-17T14:11:23.980Z,13.83
2023-05-17T14:13:50.516Z,13.75
2023-05-17T14:16:17.002Z,13.72
2023-05-17T14:18:43.564Z,13.81
2023-05-17T14:21:10.435Z,13.90
2023-05-17T14:23:37.447Z,13.83
2023-05-17T14:26:07.097Z,13.78
2023-05-17T14:28:36.199Z,13.78
2023-05-17T14:31:02.735Z,13.86
2023-05-17T14:33:29.237Z,13.92
2023-05-17T14:35:55.951Z,13.84
2023-05-17T14:38:23.021Z,13.73
2023-05-17T14:40:49.470Z,13.78
2023-05-17T14:43:16.618Z,13.76
2023-05-17T14:45:43.099Z,13.81
2023-05-17T14:48:09.742Z,13.76
2023-05-17T14:50:36.305Z,13.70
2023-05-17T14:53:02.923Z,13.54
2023-05-17T14:55:30.099Z,13.48
2023-05-17T14:57:58.006Z,13.63
2023-05-17T15:00:25.346Z,13.72
2023-05-17T15:02:51.816Z,13.74
2023-05-17T15:05:18.587Z,13.73
2023-05-17T15:07:45.296Z,13.70
2023-05-17T15:10:13.004Z,13.64
2023-05-17T15:12:39.498Z,13.44
2023-05-17T15:15:06.705Z,13.32
2023-05-17T15:17:33.732Z,13.41
2023-05-17T15:20:00.324Z,13.58
2023-05-17T15:22:27.095Z,13.72
2023-05-17T15:24:54.309Z,13.71
2023-05-17T15:27:21.011Z,13.72
2023-05-17T15:29:47.501Z,13.65
2023-05-17T15:32:14.040Z,13.48
2023-05-17T15:34:41.148Z,13.29
2023-05-17T15:37:07.671Z,13.30
2023-05-17T15:39:34.175Z,13.37
2023-05-17T15:42:00.987Z,13.35
2023-05-17T15:44:27.403Z,13.42
2023-05-17T15:46:53.915Z,13.51
2023-05-17T15:49:20.522Z,13.58
2023-05-17T15:51:47.125Z,13.65
2023-05-17T15:54:14.569Z,13.59
2023-05-17T15:56:41.893Z,13.66
2023-05-17T15:59:08.314Z,13.68
2023-05-17T16:01:34.957Z,13.64
2023-05-17T16:04:01.580Z,13.72
2023-05-17T16:06:28.122Z,13.77
2023-05-17T16:08:54.626Z,13.76
2023-05-17T16:11:21.405Z,13.68
2023-05-17T16:13:47.878Z,13.47
2023-05-17T16:16:14.734Z,13.25
2023-05-17T16:18:41.438Z,13.21
2023-05-17T16:21:08.019Z,13.11
2023-05-17T16:23:34.536Z,13.08
2023-05-17T16:26:01.442Z,13.15
2023-05-17T16:28:28.109Z,13.19
2023-05-17T16:30:54.678Z,13.02
2023-05-17T16:33:21.244Z,12.97
2023-05-17T16:35:50.689Z,12.92
2023-05-17T16:38:17.175Z,12.86
2023-05-17T16:40:43.718Z,12.97
2023-05-17T16:43:15.605Z,13.05
2023-05-17T16:45:43.838Z,13.03
2023-05-17T16:48:13.279Z,12.98
2023-05-17T16:50:43.384Z,12.97
2023-05-17T16:53:10.045Z,12.84
2023-05-17T16:55:36.701Z,12.80
2023-05-17T16:58:03.689Z,12.87
2023-05-17T17:00:30.629Z,12.95
2023-05-17T17:02:59.072Z,12.92
2023-05-17T17:05:27.551Z,12.90
2023-05-17T17:07:54.352Z,12.83
2023-05-17T17:10:21.533Z,12.85
2023-05-17T17:12:49.194Z,12.85
2023-05-17T17:15:15.765Z,12.89
2023-05-17T17:17:42.666Z,12.80
2023-05-17T17:20:09.790Z,12.77
2023-05-17T17:22:36.254Z,12.77
2023-05-17T17:25:02.728Z,12.73
2023-05-17T17:27:29.274Z,12.79
2023-05-17T17:29:55.826Z,12.81
2023-05-17T17:32:22.463Z,12.75
2023-05-17T17:34:48.990Z,12.67
2023-05-17T17:37:15.440Z,12.74
2023-05-17T17:39:42.089Z,12.82
2023-05-17T17:42:10.300Z,12.85
2023-05-17T17:44:36.788Z,12.92
2023-05-17T17:47:03.418Z,12.91
2023-05-17T17:49:30.143Z,12.80
2023-05-17T17:51:58.102Z,12.78
2023-05-17T17:54:24.691Z,12.78
2023-05-17T17:56:51.244Z,12.77
2023-05-17T17:59:17.738Z,12.77
2023-05-17T18:01:44.426Z,12.68
2023-05-17T18:04:11.276Z,12.64
2023-05-17T18:06:39.949Z,12.64
2023-05-17T18:09:06.465Z,12.58
2023-05-17T18:11:33.033Z,12.49
2023-05-17T18:13:59.566Z,12.50
2023-05-17T18:16:26.063Z,12.53
2023-05-17T18:18:52.709Z,12.51
2023-05-17T18:21:19.301Z,12.45
2023-05-17T18:23:46.058Z,12.46
2023-05-17T18:26:12.539Z,12.51
2023-05-17T18:28:42.586Z,12.57
2023-05-17T18:31:09.776Z,12.51
2023-05-17T18:33:36.570Z,12.51
2023-05-17T18:36:03.203Z,12.54
2023-05-17T18:38:29.706Z,12.54
2023-05-17T18:40:56.157Z,12.47
2023-05-17T18:43:22.635Z,12.37
2023-05-17T18:45:49.132Z,12.34
2023-05-17T18:48:15.644Z,12.30
2023-05-17T18:50:43.042Z,12.25
2023-05-17T18:53:09.926Z,12.17
2023-05-17T18:55:36.446Z,12.12
2023-05-17T18:58:02.916Z,12.09
2023-05-17T19:00:29.591Z,12.08
2023-05-17T19:02:56.320Z,12.05
2023-05-17T19:05:22.813Z,12.05
2023-05-17T19:07:49.459Z,12.05
2023-05-17T19:10:15.949Z,12.04
2023-05-17T19:12:45.460Z,12.03
2023-05-17T19:15:12.276Z,11.95
2023-05-17T19:17:38.862Z,11.98
2023-05-17T19:20:05.944Z,11.97
2023-05-17T19:22:32.531Z,12.02
2023-05-17T19:24:59.971Z,12.04
2023-05-17T19:27:27.412Z,12.00
2023-05-17T19:29:53.830Z,11.97
2023-05-17T19:32:20.567Z,11.95
2023-05-17T19:34:47.035Z,11.96
2023-05-17T19:37:13.663Z,11.98
2023-05-17T19:39:40.539Z,12.01
2023-05-17T19:42:07.182Z,11.99
2023-05-17T19:44:33.640Z,11.94
2023-05-17T19:47:00.102Z,11.82
2023-05-17T19:49:26.556Z,11.72
2023-05-17T19:51:54.032Z,11.67
2023-05-17T19:54:21.915Z,11.67
2023-05-17T19:56:48.366Z,11.63
2023-05-17T19:59:14.825Z,11.62
2023-05-17T20:01:41.326Z,11.63
2023-05-17T20:04:08.010Z,11.66
2023-05-17T20:06:34.645Z,11.72
2023-05-17T20:09:01.143Z,11.77
2023-05-17T20:11:27.831Z,11.81
2023-05-17T20:13:54.299Z,11.81
2023-05-17T20:16:20.925Z,11.80
2023-05-17T20:18:47.560Z,11.76
2023-05-17T20:21:18.568Z,11.79
2023-05-17T20:23:46.047Z,11.81
2023-05-17T20:26:25.436Z,11.79
2023-05-17T20:28:52.710Z,11.76
2023-05-17T20:31:19.610Z,11.74
2023-05-17T20:33:46.114Z,11.72
2023-05-17T20:36:14.420Z,11.73
2023-05-17T20:38:43.013Z,11.75
2023-05-17T20:41:10.982Z,11.71
2023-05-17T20:43:37.458Z,11.67
2023-05-17T20:46:07.545Z,11.62
2023-05-17T20:48:34.281Z,11.61
2023-05-17T20:51:01.283Z,11.56
2023-05-17T20:53:31.255Z,11.49
2023-05-17T20:55:58.460Z,11.52
2023-05-17T20:58:24.939Z,11.53
2023-05-17T21:00:52.848Z,11.54
2023-05-17T21:03:19.462Z,11.49
2023-05-17T21:05:46.461Z,11.50
2023-05-17T21:08:12.961Z,11.49
2023-05-17T21:10:46.279Z,11.50
2023-05-17T21:13:14.564Z,11.44
2023-05-17T21:15:41.691Z,11.41
2023-05-17T21:18:10.709Z,11.37
2023-05-17T21:20:37.983Z,11.43
2023-05-17T21:23:04.603Z,11.42
2023-05-17T21:25:31.304Z,11.41
2023-05-17T21:27:57.838Z,11.39
2023-05-17T21:30:24.326Z,11.38
2023-05-17T21:32:51.274Z,11.35
2023-05-17T21:35:17.729Z,11.30
2023-05-17T21:37:44.160Z,11.30
2023-05-17T21:40:10.911Z,11.34
2023-05-17T21:42:37.474Z,11.37
2023-05-17T21:45:04.399Z,11.37
2023-05-17T21:47:30.990Z,11.36
2023-05-17T21:49:57.693Z,11.37
2023-05-17T21:52:24.184Z,11.36
2023-05-17T21:54:50.745Z,11.34
2023-05-17T21:57:17.269Z,11.36
2023-05-17T21:59:43.721Z,11.36
2023-05-17T22:02:10.469Z,11.35
2023-05-17T22:04:38.422Z,11.33
2023-05-17T22:07:06.166Z,11.33
2023-05-17T22:09:32.862Z,11.34
2023-05-17T22:12:00.200Z,11.30
2023-05-17T22:14:32.991Z,11.29
2023-05-17T22:17:00.147Z,11.30
2023-05-17T22:19:26.761Z,11.25
2023-05-17T22:21:53.286Z,11.23
2023-05-17T22:24:20.332Z,11.17
2023-05-17T22:26:46.864Z,11.17
2023-05-17T22:29:13.350Z,11.16
2023-05-17T22:31:39.870Z,11.18
2023-05-17T22:34:06.663Z,11.18
2023-05-17T22:36:34.612Z,11.18
2023-05-17T22:39:01.412Z,11.13
2023-05-17T22:41:27.842Z,11.04
2023-05-17T22:43:54.322Z,10.98
2023-05-17T22:46:20.863Z,10.94
2023-05-17T22:48:47.661Z,10.95
2023-05-17T22:51:14.112Z,10.99
2023-05-17T22:53:40.591Z,11.05
2023-05-17T22:56:07.087Z,11.07
2023-05-17T22:58:33.620Z,11.07
2023-05-17T23:01:00.648Z,11.07
2023-05-17T23:03:27.224Z,11.06
2023-05-17T23:06:02.105Z,11.07
2023-05-17T23:08:32.252Z,11.07
2023-05-17T23:10:58.778Z,11.04
2023-05-17T23:13:26.075Z,11.00
2023-05-17T23:15:53.089Z,10.97
2023-05-17T23:18:19.665Z,10.92
2023-05-17T23:20:46.343Z,10.91
2023-05-17T23:23:15.973Z,10.89
2023-05-17T23:25:44.637Z,10.88
2023-05-17T23:28:11.427Z,10.89
2023-05-17T23:30:39.819Z,10.91
2023-05-17T23:33:06.542Z,10.89
2023-05-17T23:35:33.003Z,10.91
2023-05-17T23:37:59.773Z,10.89
2023-05-17T23:40:26.411Z,10.89
2023-05-17T23:42:52.958Z,10.86
2023-05-17T23:45:19.457Z,10.87
2023-05-17T23:47:47.440Z,10.85
2023-05-17T23:50:13.965Z,10.85
2023-05-17T23:52:40.403Z,10.81
2023-05-17T23:55:07.437Z,10.69
2023-05-17T23:57:35.128Z,10.68
